sensor_id;sensor_type;location;lat;lon;timestamp;temperature;humidity
52415;DHT22;38340;52.964;6.086;2022-07-03T00:01:58;17.20;99.90
52415;DHT22;38340;52.964;6.086;2022-07-03T00:04:23;17.10;99.90
52415;DHT22;38340;52.964;6.086;2022-07-03T00:06:49;17.00;99.90
52415;DHT22;38340;52.964;6.086;2022-07-03T00:09:15;17.00;99.90
52415;DHT22;38340;52.964;6.086;2022-07-03T00:11:42;16.90;99.90
52415;DHT22;38340;52.964;6.086;2022-07-03T00:14:08;16.80;99.90
52415;DHT22;38340;52.964;6.086;2022-07-03T00:16:33;16.80;99.90
52415;DHT22;38340;52.964;6.086;2022-07-03T00:18:59;16.80;99.90
52415;DHT22;38340;52.964;6.086;2022-07-03T00:21:28;16.70;99.90
52415;DHT22;38340;52.964;6.086;2022-07-03T00:24:03;16.70;99.90
52415;DHT22;38340;52.964;6.086;2022-07-03T00:26:32;16.70;99.90
52415;DHT22;38340;52.964;6.086;2022-07-03T00:29:00;16.50;99.90
52415;DHT22;38340;52.964;6.086;2022-07-03T00:31:29;16.50;99.90
52415;DHT22;38340;52.964;6.086;2022-07-03T00:33:57;16.50;99.90
52415;DHT22;38340;52.964;6.086;2022-07-03T00:36:26;16.40;99.90
52415;DHT22;38340;52.964;6.086;2022-07-03T00:38:54;16.40;99.90
52415;DHT22;38340;52.964;6.086;2022-07-03T00:41:32;16.30;99.90
52415;DHT22;38340;52.964;6.086;2022-07-03T00:43:59;16.10;99.90
52415;DHT22;38340;52.964;6.086;2022-07-03T00:46:26;16.10;99.90
52415;DHT22;38340;52.964;6.086;2022-07-03T00:48:53;16.10;99.90
52415;DHT22;38340;52.964;6.086;2022-07-03T00:51:24;16.00;99.90
52415;DHT22;38340;52.964;6.086;2022-07-03T00:53:52;15.90;99.90
52415;DHT22;38340;52.964;6.086;2022-07-03T00:56:24;15.80;99.90
52415;DHT22;38340;52.964;6.086;2022-07-03T00:58:54;15.60;99.90
52415;DHT22;38340;52.964;6.086;2022-07-03T01:01:22;15.50;99.90
52415;DHT22;38340;52.964;6.086;2022-07-03T01:03:58;15.20;99.90
52415;DHT22;38340;52.964;6.086;2022-07-03T01:06:26;15.10;99.90
52415;DHT22;38340;52.964;6.086;2022-07-03T01:09:03;15.10;99.90
52415;DHT22;38340;52.964;6.086;2022-07-03T01:11:48;15.00;99.90
52415;DHT22;38340;52.964;6.086;2022-07-03T01:17:16;15.10;99.90
52415;DHT22;38340;52.964;6.086;2022-07-03T01:19:48;15.10;99.90
52415;DHT22;38340;52.964;6.086;2022-07-03T01:27:58;15.10;99.90
52415;DHT22;38340;52.964;6.086;2022-07-03T01:30:26;15.20;99.90
52415;DHT22;38340;52.964;6.086;2022-07-03T01:35:31;15.20;99.90
52415;DHT22;38340;52.964;6.086;2022-07-03T01:38:02;15.20;99.90
52415;DHT22;38340;52.964;6.086;2022-07-03T01:40:29;15.20;99.90
52415;DHT22;38340;52.964;6.086;2022-07-03T01:42:54;15.20;99.90
52415;DHT22;38340;52.964;6.086;2022-07-03T01:45:21;15.20;99.90
52415;DHT22;38340;52.964;6.086;2022-07-03T01:47:49;15.10;99.90
52415;DHT22;38340;52.964;6.086;2022-07-03T01:50:16;15.10;99.90
52415;DHT22;38340;52.964;6.086;2022-07-03T01:52:43;15.10;99.90
52415;DHT22;38340;52.964;6.086;2022-07-03T01:55:14;15.10;99.90
52415;DHT22;38340;52.964;6.086;2022-07-03T01:57:48;15.00;99.90
52415;DHT22;38340;52.964;6.086;2022-07-03T02:00:17;15.00;99.90
52415;DHT22;38340;52.964;6.086;2022-07-03T02:11:08;15.00;99.90
52415;DHT22;38340;52.964;6.086;2022-07-03T02:13:41;15.00;99.90
52415;DHT22;38340;52.964;6.086;2022-07-03T02:16:12;15.00;99.90
52415;DHT22;38340;52.964;6.086;2022-07-03T02:18:41;15.00;99.90
52415;DHT22;38340;52.964;6.086;2022-07-03T02:21:15;14.90;99.90
52415;DHT22;38340;52.964;6.086;2022-07-03T02:23:51;14.80;99.90
52415;DHT22;38340;52.964;6.086;2022-07-03T02:26:22;14.80;99.90
52415;DHT22;38340;52.964;6.086;2022-07-03T02:28:58;14.80;99.90
52415;DHT22;38340;52.964;6.086;2022-07-03T02:31:24;14.70;99.90
52415;DHT22;38340;52.964;6.086;2022-07-03T02:33:56;14.70;99.90
52415;DHT22;38340;52.964;6.086;2022-07-03T02:36:24;14.70;99.90
52415;DHT22;38340;52.964;6.086;2022-07-03T02:38:56;14.70;99.90
52415;DHT22;38340;52.964;6.086;2022-07-03T02:41:44;14.60;99.90
52415;DHT22;38340;52.964;6.086;2022-07-03T02:44:27;14.60;99.90
52415;DHT22;38340;52.964;6.086;2022-07-03T02:47:21;14.50;99.90
52415;DHT22;38340;52.964;6.086;2022-07-03T02:55:44;14.40;99.90
52415;DHT22;38340;52.964;6.086;2022-07-03T02:58:18;14.40;99.90
52415;DHT22;38340;52.964;6.086;2022-07-03T03:03:30;14.50;99.90
52415;DHT22;38340;52.964;6.086;2022-07-03T03:06:02;14.60;99.90
52415;DHT22;38340;52.964;6.086;2022-07-03T03:08:53;14.70;99.90
52415;DHT22;38340;52.964;6.086;2022-07-03T03:11:55;14.80;99.90
52415;DHT22;38340;52.964;6.086;2022-07-03T03:14:30;14.90;99.90
52415;DHT22;38340;52.964;6.086;2022-07-03T03:17:05;14.80;99.90
52415;DHT22;38340;52.964;6.086;2022-07-03T03:19:36;14.80;99.90
52415;DHT22;38340;52.964;6.086;2022-07-03T03:22:28;14.80;99.90
52415;DHT22;38340;52.964;6.086;2022-07-03T03:24:56;14.80;99.90
52415;DHT22;38340;52.964;6.086;2022-07-03T03:27:23;14.70;99.90
52415;DHT22;38340;52.964;6.086;2022-07-03T03:29:49;14.60;99.90
52415;DHT22;38340;52.964;6.086;2022-07-03T03:32:16;14.60;99.90
52415;DHT22;38340;52.964;6.086;2022-07-03T03:34:42;14.50;99.90
52415;DHT22;38340;52.964;6.086;2022-07-03T03:37:08;14.50;99.90
52415;DHT22;38340;52.964;6.086;2022-07-03T03:39:34;14.50;99.90
52415;DHT22;38340;52.964;6.086;2022-07-03T03:42:00;14.50;99.90
52415;DHT22;38340;52.964;6.086;2022-07-03T03:44:27;14.60;99.90
52415;DHT22;38340;52.964;6.086;2022-07-03T03:46:52;14.60;99.90
52415;DHT22;38340;52.964;6.086;2022-07-03T03:49:19;14.70;99.90
52415;DHT22;38340;52.964;6.086;2022-07-03T03:51:45;14.70;99.90
52415;DHT22;38340;52.964;6.086;2022-07-03T03:54:11;14.70;99.90
52415;DHT22;38340;52.964;6.086;2022-07-03T03:56:37;14.70;99.90
52415;DHT22;38340;52.964;6.086;2022-07-03T03:59:02;14.90;99.90
52415;DHT22;38340;52.964;6.086;2022-07-03T04:01:28;14.90;99.90
52415;DHT22;38340;52.964;6.086;2022-07-03T04:03:54;14.90;99.90
52415;DHT22;38340;52.964;6.086;2022-07-03T04:06:20;15.00;99.90
52415;DHT22;38340;52.964;6.086;2022-07-03T04:08:45;14.90;99.90
52415;DHT22;38340;52.964;6.086;2022-07-03T04:11:11;15.00;99.90
52415;DHT22;38340;52.964;6.086;2022-07-03T04:13:37;15.00;99.90
52415;DHT22;38340;52.964;6.086;2022-07-03T04:16:02;15.10;99.90
52415;DHT22;38340;52.964;6.086;2022-07-03T04:18:28;15.00;99.90
52415;DHT22;38340;52.964;6.086;2022-07-03T04:20:54;15.00;99.90
52415;DHT22;38340;52.964;6.086;2022-07-03T04:23:19;15.10;99.90
52415;DHT22;38340;52.964;6.086;2022-07-03T04:25:46;15.00;99.90
52415;DHT22;38340;52.964;6.086;2022-07-03T04:28:11;15.20;99.90
52415;DHT22;38340;52.964;6.086;2022-07-03T04:30:37;15.40;99.90
52415;DHT22;38340;52.964;6.086;2022-07-03T04:33:03;15.60;99.90
52415;DHT22;38340;52.964;6.086;2022-07-03T04:35:28;15.60;99.90
52415;DHT22;38340;52.964;6.086;2022-07-03T04:37:54;15.90;99.90
52415;DHT22;38340;52.964;6.086;2022-07-03T04:40:20;16.60;99.90
52415;DHT22;38340;52.964;6.086;2022-07-03T04:42:46;17.20;99.90
52415;DHT22;38340;52.964;6.086;2022-07-03T04:45:11;17.80;99.90
52415;DHT22;38340;52.964;6.086;2022-07-03T04:47:37;18.40;99.90
52415;DHT22;38340;52.964;6.086;2022-07-03T04:50:03;18.80;99.90
52415;DHT22;38340;52.964;6.086;2022-07-03T04:52:29;18.80;99.90
52415;DHT22;38340;52.964;6.086;2022-07-03T04:54:54;18.60;99.90
52415;DHT22;38340;52.964;6.086;2022-07-03T04:57:20;18.60;99.90
52415;DHT22;38340;52.964;6.086;2022-07-03T04:59:46;19.20;99.90
52415;DHT22;38340;52.964;6.086;2022-07-03T05:02:12;20.00;99.90
52415;DHT22;38340;52.964;6.086;2022-07-03T05:04:38;20.80;99.90
52415;DHT22;38340;52.964;6.086;2022-07-03T05:07:03;21.30;99.90
52415;DHT22;38340;52.964;6.086;2022-07-03T05:09:29;21.50;99.90
52415;DHT22;38340;52.964;6.086;2022-07-03T05:11:55;22.00;99.90
52415;DHT22;38340;52.964;6.086;2022-07-03T05:14:21;22.50;99.90
52415;DHT22;38340;52.964;6.086;2022-07-03T05:16:46;22.50;99.90
52415;DHT22;38340;52.964;6.086;2022-07-03T05:19:12;22.00;99.90
52415;DHT22;38340;52.964;6.086;2022-07-03T05:21:38;21.50;99.90
52415;DHT22;38340;52.964;6.086;2022-07-03T05:24:04;21.30;99.90
52415;DHT22;38340;52.964;6.086;2022-07-03T05:26:29;21.30;99.90
52415;DHT22;38340;52.964;6.086;2022-07-03T05:28:55;21.10;99.90
52415;DHT22;38340;52.964;6.086;2022-07-03T05:31:21;21.00;99.90
52415;DHT22;38340;52.964;6.086;2022-07-03T05:33:46;20.90;99.90
52415;DHT22;38340;52.964;6.086;2022-07-03T05:36:12;20.60;99.90
52415;DHT22;38340;52.964;6.086;2022-07-03T05:38:38;20.30;99.90
52415;DHT22;38340;52.964;6.086;2022-07-03T05:41:22;19.90;99.90
52415;DHT22;38340;52.964;6.086;2022-07-03T05:43:47;19.60;99.90
52415;DHT22;38340;52.964;6.086;2022-07-03T05:46:13;19.40;99.90
52415;DHT22;38340;52.964;6.086;2022-07-03T05:48:39;19.20;99.90
52415;DHT22;38340;52.964;6.086;2022-07-03T05:51:05;19.20;99.90
52415;DHT22;38340;52.964;6.086;2022-07-03T05:53:30;19.20;99.90
52415;DHT22;38340;52.964;6.086;2022-07-03T05:55:57;19.60;99.90
52415;DHT22;38340;52.964;6.086;2022-07-03T05:58:23;20.10;99.90
52415;DHT22;38340;52.964;6.086;2022-07-03T06:00:49;20.00;99.90
52415;DHT22;38340;52.964;6.086;2022-07-03T06:03:14;19.80;99.90
52415;DHT22;38340;52.964;6.086;2022-07-03T06:05:40;19.60;99.90
52415;DHT22;38340;52.964;6.086;2022-07-03T06:08:06;19.40;99.90
52415;DHT22;38340;52.964;6.086;2022-07-03T06:10:32;19.20;99.90
52415;DHT22;38340;52.964;6.086;2022-07-03T06:12:59;19.10;99.90
52415;DHT22;38340;52.964;6.086;2022-07-03T06:15:24;19.20;99.90
52415;DHT22;38340;52.964;6.086;2022-07-03T06:17:50;19.10;99.90
52415;DHT22;38340;52.964;6.086;2022-07-03T06:20:16;19.20;99.90
52415;DHT22;38340;52.964;6.086;2022-07-03T06:22:42;19.40;99.90
52415;DHT22;38340;52.964;6.086;2022-07-03T06:25:07;19.50;99.90
52415;DHT22;38340;52.964;6.086;2022-07-03T06:27:33;19.80;99.90
52415;DHT22;38340;52.964;6.086;2022-07-03T06:29:59;19.90;99.90
52415;DHT22;38340;52.964;6.086;2022-07-03T06:32:25;19.90;99.90
52415;DHT22;38340;52.964;6.086;2022-07-03T06:34:51;20.00;99.90
52415;DHT22;38340;52.964;6.086;2022-07-03T06:37:18;19.80;99.90
52415;DHT22;38340;52.964;6.086;2022-07-03T06:39:44;19.80;99.90
52415;DHT22;38340;52.964;6.086;2022-07-03T06:42:10;19.60;99.90
52415;DHT22;38340;52.964;6.086;2022-07-03T06:44:36;19.60;99.90
52415;DHT22;38340;52.964;6.086;2022-07-03T06:47:01;19.70;99.90
52415;DHT22;38340;52.964;6.086;2022-07-03T06:49:29;19.90;99.90
52415;DHT22;38340;52.964;6.086;2022-07-03T06:51:57;20.10;99.90
52415;DHT22;38340;52.964;6.086;2022-07-03T06:54:22;20.10;99.90
52415;DHT22;38340;52.964;6.086;2022-07-03T06:56:48;20.10;99.90
52415;DHT22;38340;52.964;6.086;2022-07-03T06:59:14;20.10;99.90
52415;DHT22;38340;52.964;6.086;2022-07-03T07:01:40;20.10;99.90
52415;DHT22;38340;52.964;6.086;2022-07-03T07:04:05;20.10;99.90
52415;DHT22;38340;52.964;6.086;2022-07-03T07:06:31;20.30;99.90
52415;DHT22;38340;52.964;6.086;2022-07-03T07:08:56;20.60;99.90
52415;DHT22;38340;52.964;6.086;2022-07-03T07:11:22;20.90;99.90
52415;DHT22;38340;52.964;6.086;2022-07-03T07:13:48;21.00;99.90
52415;DHT22;38340;52.964;6.086;2022-07-03T07:16:13;21.20;99.90
52415;DHT22;38340;52.964;6.086;2022-07-03T07:18:40;21.30;99.90
52415;DHT22;38340;52.964;6.086;2022-07-03T07:21:06;21.20;99.90
52415;DHT22;38340;52.964;6.086;2022-07-03T07:23:32;21.20;99.90
52415;DHT22;38340;52.964;6.086;2022-07-03T07:25:58;21.30;99.90
52415;DHT22;38340;52.964;6.086;2022-07-03T07:28:24;21.30;99.90
52415;DHT22;38340;52.964;6.086;2022-07-03T07:30:49;21.20;99.90
52415;DHT22;38340;52.964;6.086;2022-07-03T07:33:19;21.30;99.90
52415;DHT22;38340;52.964;6.086;2022-07-03T07:35:45;21.40;99.90
52415;DHT22;38340;52.964;6.086;2022-07-03T07:38:10;21.40;99.90
52415;DHT22;38340;52.964;6.086;2022-07-03T07:40:36;21.50;99.90
52415;DHT22;38340;52.964;6.086;2022-07-03T07:43:02;21.50;99.90
52415;DHT22;38340;52.964;6.086;2022-07-03T07:45:28;21.60;99.90
52415;DHT22;38340;52.964;6.086;2022-07-03T07:47:54;21.70;99.90
52415;DHT22;38340;52.964;6.086;2022-07-03T07:50:19;21.90;99.90
52415;DHT22;38340;52.964;6.086;2022-07-03T07:52:45;21.90;99.90
52415;DHT22;38340;52.964;6.086;2022-07-03T07:55:11;21.90;99.90
52415;DHT22;38340;52.964;6.086;2022-07-03T07:57:38;21.90;99.90
52415;DHT22;38340;52.964;6.086;2022-07-03T08:00:13;22.10;99.90
52415;DHT22;38340;52.964;6.086;2022-07-03T08:02:39;22.00;99.90
52415;DHT22;38340;52.964;6.086;2022-07-03T08:05:24;22.20;99.90
52415;DHT22;38340;52.964;6.086;2022-07-03T08:10:34;22.40;99.90
52415;DHT22;38340;52.964;6.086;2022-07-03T08:13:00;22.20;99.90
52415;DHT22;38340;52.964;6.086;2022-07-03T08:15:26;22.10;99.90
52415;DHT22;38340;52.964;6.086;2022-07-03T08:17:51;22.10;99.90
52415;DHT22;38340;52.964;6.086;2022-07-03T08:20:17;22.10;99.90
52415;DHT22;38340;52.964;6.086;2022-07-03T08:22:42;22.20;99.90
52415;DHT22;38340;52.964;6.086;2022-07-03T08:25:08;22.20;99.90
52415;DHT22;38340;52.964;6.086;2022-07-03T08:27:34;22.40;99.90
52415;DHT22;38340;52.964;6.086;2022-07-03T08:29:59;22.60;99.90
52415;DHT22;38340;52.964;6.086;2022-07-03T08:32:25;22.70;99.90
52415;DHT22;38340;52.964;6.086;2022-07-03T08:34:51;23.00;99.90
52415;DHT22;38340;52.964;6.086;2022-07-03T08:37:16;22.90;99.90
52415;DHT22;38340;52.964;6.086;2022-07-03T08:39:42;22.90;99.90
52415;DHT22;38340;52.964;6.086;2022-07-03T08:42:10;23.10;99.90
52415;DHT22;38340;52.964;6.086;2022-07-03T08:44:37;23.10;99.90
52415;DHT22;38340;52.964;6.086;2022-07-03T08:47:03;23.20;99.90
52415;DHT22;38340;52.964;6.086;2022-07-03T08:49:30;23.40;99.90
52415;DHT22;38340;52.964;6.086;2022-07-03T08:51:56;23.60;99.90
52415;DHT22;38340;52.964;6.086;2022-07-03T08:54:23;23.70;99.90
52415;DHT22;38340;52.964;6.086;2022-07-03T08:56:48;23.50;99.90
52415;DHT22;38340;52.964;6.086;2022-07-03T08:59:15;23.30;99.90
52415;DHT22;38340;52.964;6.086;2022-07-03T09:01:41;23.00;99.90
52415;DHT22;38340;52.964;6.086;2022-07-03T09:04:11;23.20;99.90
52415;DHT22;38340;52.964;6.086;2022-07-03T09:06:40;23.20;99.90
52415;DHT22;38340;52.964;6.086;2022-07-03T09:09:07;23.10;99.90
52415;DHT22;38340;52.964;6.086;2022-07-03T09:11:35;23.20;99.90
52415;DHT22;38340;52.964;6.086;2022-07-03T09:14:01;23.10;99.90
52415;DHT22;38340;52.964;6.086;2022-07-03T09:16:33;22.90;99.90
52415;DHT22;38340;52.964;6.086;2022-07-03T09:18:59;23.00;99.90
52415;DHT22;38340;52.964;6.086;2022-07-03T09:21:25;23.10;99.90
52415;DHT22;38340;52.964;6.086;2022-07-03T09:23:51;22.90;99.90
52415;DHT22;38340;52.964;6.086;2022-07-03T09:26:18;23.10;99.90
52415;DHT22;38340;52.964;6.086;2022-07-03T09:28:45;23.30;99.90
52415;DHT22;38340;52.964;6.086;2022-07-03T09:31:16;23.40;99.90
52415;DHT22;38340;52.964;6.086;2022-07-03T09:34:02;23.40;99.90
52415;DHT22;38340;52.964;6.086;2022-07-03T09:39:24;23.50;99.90
52415;DHT22;38340;52.964;6.086;2022-07-03T09:42:08;23.50;99.90
52415;DHT22;38340;52.964;6.086;2022-07-03T09:44:39;23.40;99.90
52415;DHT22;38340;52.964;6.086;2022-07-03T09:49:58;23.50;99.90
52415;DHT22;38340;52.964;6.086;2022-07-03T09:57:31;24.00;99.90
52415;DHT22;38340;52.964;6.086;2022-07-03T10:00:11;24.10;99.90
52415;DHT22;38340;52.964;6.086;2022-07-03T10:02:57;24.30;99.90
52415;DHT22;38340;52.964;6.086;2022-07-03T10:05:32;24.10;99.90
52415;DHT22;38340;52.964;6.086;2022-07-03T10:08:01;23.90;99.90
52415;DHT22;38340;52.964;6.086;2022-07-03T10:10:30;23.80;99.90
52415;DHT22;38340;52.964;6.086;2022-07-03T10:12:56;23.90;99.90
52415;DHT22;38340;52.964;6.086;2022-07-03T10:15:24;24.20;99.90
52415;DHT22;38340;52.964;6.086;2022-07-03T10:17:52;24.40;99.90
52415;DHT22;38340;52.964;6.086;2022-07-03T10:20:49;24.20;99.90
52415;DHT22;38340;52.964;6.086;2022-07-03T10:23:16;24.00;99.90
52415;DHT22;38340;52.964;6.086;2022-07-03T10:25:43;24.40;99.90
52415;DHT22;38340;52.964;6.086;2022-07-03T10:28:12;24.40;99.90
52415;DHT22;38340;52.964;6.086;2022-07-03T10:30:38;24.30;99.90
52415;DHT22;38340;52.964;6.086;2022-07-03T10:33:05;24.00;99.90
52415;DHT22;38340;52.964;6.086;2022-07-03T10:35:36;23.90;99.90
52415;DHT22;38340;52.964;6.086;2022-07-03T10:43:24;23.90;99.90
52415;DHT22;38340;52.964;6.086;2022-07-03T10:46:26;24.10;99.90
52415;DHT22;38340;52.964;6.086;2022-07-03T10:51:21;24.30;99.90
52415;DHT22;38340;52.964;6.086;2022-07-03T10:53:47;24.30;99.90
52415;DHT22;38340;52.964;6.086;2022-07-03T10:56:14;24.20;99.90
52415;DHT22;38340;52.964;6.086;2022-07-03T10:58:58;24.30;99.90
52415;DHT22;38340;52.964;6.086;2022-07-03T11:01:28;24.30;99.90
52415;DHT22;38340;52.964;6.086;2022-07-03T11:03:57;24.40;99.90
52415;DHT22;38340;52.964;6.086;2022-07-03T11:09:15;24.10;99.90
52415;DHT22;38340;52.964;6.086;2022-07-03T11:11:47;23.80;99.90
52415;DHT22;38340;52.964;6.086;2022-07-03T11:14:29;23.70;99.90
52415;DHT22;38340;52.964;6.086;2022-07-03T11:17:17;23.50;99.90
52415;DHT22;38340;52.964;6.086;2022-07-03T11:19:45;23.20;99.90
52415;DHT22;38340;52.964;6.086;2022-07-03T11:22:51;23.40;99.90
52415;DHT22;38340;52.964;6.086;2022-07-03T11:25:18;23.50;99.90
52415;DHT22;38340;52.964;6.086;2022-07-03T11:27:45;23.60;99.90
52415;DHT22;38340;52.964;6.086;2022-07-03T11:30:13;23.50;99.90
52415;DHT22;38340;52.964;6.086;2022-07-03T11:35:44;23.10;99.90
52415;DHT22;38340;52.964;6.086;2022-07-03T11:38:22;23.00;99.90
52415;DHT22;38340;52.964;6.086;2022-07-03T11:40:49;23.30;99.90
52415;DHT22;38340;52.964;6.086;2022-07-03T11:43:17;23.50;99.90
52415;DHT22;38340;52.964;6.086;2022-07-03T11:45:43;23.70;99.90
52415;DHT22;38340;52.964;6.086;2022-07-03T11:48:17;23.90;99.90
52415;DHT22;38340;52.964;6.086;2022-07-03T11:50:45;23.80;99.90
52415;DHT22;38340;52.964;6.086;2022-07-03T11:55:53;24.20;99.90
52415;DHT22;38340;52.964;6.086;2022-07-03T11:58:19;24.40;99.90
52415;DHT22;38340;52.964;6.086;2022-07-03T12:00:45;24.30;99.90
52415;DHT22;38340;52.964;6.086;2022-07-03T12:03:15;24.30;99.90
52415;DHT22;38340;52.964;6.086;2022-07-03T12:05:57;23.80;99.90
52415;DHT22;38340;52.964;6.086;2022-07-03T12:08:28;23.80;99.90
52415;DHT22;38340;52.964;6.086;2022-07-03T12:11:03;23.90;99.90
52415;DHT22;38340;52.964;6.086;2022-07-03T12:13:31;24.10;99.90
52415;DHT22;38340;52.964;6.086;2022-07-03T12:16:05;24.30;99.90
52415;DHT22;38340;52.964;6.086;2022-07-03T12:19:26;24.10;99.90
52415;DHT22;38340;52.964;6.086;2022-07-03T12:21:35;24.00;99.90
52415;DHT22;38340;52.964;6.086;2022-07-03T12:24:09;23.90;99.90
52415;DHT22;38340;52.964;6.086;2022-07-03T12:26:35;23.90;99.90
52415;DHT22;38340;52.964;6.086;2022-07-03T12:29:10;23.80;99.90
52415;DHT22;38340;52.964;6.086;2022-07-03T12:31:39;23.90;99.90
52415;DHT22;38340;52.964;6.086;2022-07-03T12:34:06;23.90;99.90
52415;DHT22;38340;52.964;6.086;2022-07-03T12:36:32;23.90;99.90
52415;DHT22;38340;52.964;6.086;2022-07-03T12:38:59;23.90;99.90
52415;DHT22;38340;52.964;6.086;2022-07-03T12:41:26;23.70;99.90
52415;DHT22;38340;52.964;6.086;2022-07-03T12:43:52;23.70;99.90
52415;DHT22;38340;52.964;6.086;2022-07-03T12:46:23;23.50;99.90
52415;DHT22;38340;52.964;6.086;2022-07-03T12:48:54;23.40;99.90
52415;DHT22;38340;52.964;6.086;2022-07-03T12:54:10;22.90;99.90
52415;DHT22;38340;52.964;6.086;2022-07-03T12:56:36;22.60;99.90
52415;DHT22;38340;52.964;6.086;2022-07-03T12:59:03;22.30;99.90
52415;DHT22;38340;52.964;6.086;2022-07-03T13:01:45;22.00;99.90
52415;DHT22;38340;52.964;6.086;2022-07-03T13:04:12;21.80;99.90
52415;DHT22;38340;52.964;6.086;2022-07-03T13:06:41;21.50;99.90
52415;DHT22;38340;52.964;6.086;2022-07-03T13:09:13;21.20;99.90
52415;DHT22;38340;52.964;6.086;2022-07-03T13:11:40;20.80;99.90
52415;DHT22;38340;52.964;6.086;2022-07-03T13:14:14;20.50;99.90
52415;DHT22;38340;52.964;6.086;2022-07-03T13:19:12;20.10;99.90
52415;DHT22;38340;52.964;6.086;2022-07-03T13:21:39;19.90;99.90
52415;DHT22;38340;52.964;6.086;2022-07-03T13:24:06;19.70;99.90
52415;DHT22;38340;52.964;6.086;2022-07-03T13:26:32;19.60;99.90
52415;DHT22;38340;52.964;6.086;2022-07-03T13:28:59;19.50;99.90
52415;DHT22;38340;52.964;6.086;2022-07-03T13:31:24;19.40;99.90
52415;DHT22;38340;52.964;6.086;2022-07-03T13:33:50;19.40;99.90
52415;DHT22;38340;52.964;6.086;2022-07-03T13:36:16;19.50;99.90
52415;DHT22;38340;52.964;6.086;2022-07-03T13:38:43;19.50;99.90
52415;DHT22;38340;52.964;6.086;2022-07-03T13:41:09;19.60;99.90
52415;DHT22;38340;52.964;6.086;2022-07-03T13:43:35;19.60;99.90
52415;DHT22;38340;52.964;6.086;2022-07-03T13:46:02;19.60;99.90
52415;DHT22;38340;52.964;6.086;2022-07-03T13:48:28;19.60;99.90
52415;DHT22;38340;52.964;6.086;2022-07-03T13:50:54;19.50;99.90
52415;DHT22;38340;52.964;6.086;2022-07-03T13:53:19;19.40;99.90
52415;DHT22;38340;52.964;6.086;2022-07-03T13:55:45;19.40;99.90
52415;DHT22;38340;52.964;6.086;2022-07-03T13:58:11;19.30;99.90
52415;DHT22;38340;52.964;6.086;2022-07-03T14:00:37;19.20;99.90
52415;DHT22;38340;52.964;6.086;2022-07-03T14:03:03;19.10;99.90
52415;DHT22;38340;52.964;6.086;2022-07-03T14:05:29;19.10;99.90
52415;DHT22;38340;52.964;6.086;2022-07-03T14:07:55;19.20;99.90
52415;DHT22;38340;52.964;6.086;2022-07-03T14:10:21;19.20;99.90
52415;DHT22;38340;52.964;6.086;2022-07-03T14:12:50;19.20;99.90
52415;DHT22;38340;52.964;6.086;2022-07-03T14:15:16;19.10;99.90
52415;DHT22;38340;52.964;6.086;2022-07-03T14:17:42;19.20;99.90
52415;DHT22;38340;52.964;6.086;2022-07-03T14:20:11;19.10;99.90
52415;DHT22;38340;52.964;6.086;2022-07-03T14:22:38;19.20;99.90
52415;DHT22;38340;52.964;6.086;2022-07-03T14:25:04;19.30;99.90
52415;DHT22;38340;52.964;6.086;2022-07-03T14:27:30;19.40;99.90
52415;DHT22;38340;52.964;6.086;2022-07-03T14:30:14;19.40;99.90
52415;DHT22;38340;52.964;6.086;2022-07-03T14:32:58;19.60;99.90
52415;DHT22;38340;52.964;6.086;2022-07-03T14:35:24;19.80;99.90
52415;DHT22;38340;52.964;6.086;2022-07-03T14:37:50;20.00;99.90
52415;DHT22;38340;52.964;6.086;2022-07-03T14:40:16;20.10;99.90
52415;DHT22;38340;52.964;6.086;2022-07-03T14:42:42;20.10;99.90
52415;DHT22;38340;52.964;6.086;2022-07-03T14:45:08;20.10;99.90
52415;DHT22;38340;52.964;6.086;2022-07-03T14:47:34;20.10;99.90
52415;DHT22;38340;52.964;6.086;2022-07-03T14:49:59;20.20;99.90
52415;DHT22;38340;52.964;6.086;2022-07-03T14:52:26;20.00;99.90
52415;DHT22;38340;52.964;6.086;2022-07-03T14:54:54;19.90;99.90
52415;DHT22;38340;52.964;6.086;2022-07-03T15:00:10;19.60;99.90
52415;DHT22;38340;52.964;6.086;2022-07-03T15:02:48;19.50;99.90
52415;DHT22;38340;52.964;6.086;2022-07-03T15:05:16;19.40;99.90
52415;DHT22;38340;52.964;6.086;2022-07-03T15:07:46;19.30;99.90
52415;DHT22;38340;52.964;6.086;2022-07-03T15:10:15;19.20;99.90
52415;DHT22;38340;52.964;6.086;2022-07-03T15:12:42;19.10;99.90
52415;DHT22;38340;52.964;6.086;2022-07-03T15:15:10;19.00;99.90
52415;DHT22;38340;52.964;6.086;2022-07-03T15:17:36;19.10;99.90
52415;DHT22;38340;52.964;6.086;2022-07-03T15:20:03;19.10;99.90
52415;DHT22;38340;52.964;6.086;2022-07-03T15:22:30;19.20;99.90
52415;DHT22;38340;52.964;6.086;2022-07-03T15:24:58;19.20;99.90
52415;DHT22;38340;52.964;6.086;2022-07-03T15:27:24;19.30;99.90
52415;DHT22;38340;52.964;6.086;2022-07-03T15:29:50;19.20;99.90
52415;DHT22;38340;52.964;6.086;2022-07-03T15:32:17;19.20;99.90
52415;DHT22;38340;52.964;6.086;2022-07-03T15:34:44;19.10;99.90
52415;DHT22;38340;52.964;6.086;2022-07-03T15:45:06;18.60;99.90
52415;DHT22;38340;52.964;6.086;2022-07-03T15:50:37;18.50;99.90
52415;DHT22;38340;52.964;6.086;2022-07-03T15:53:10;18.50;99.90
52415;DHT22;38340;52.964;6.086;2022-07-03T15:55:40;18.60;99.90
52415;DHT22;38340;52.964;6.086;2022-07-03T15:58:09;18.70;99.90
52415;DHT22;38340;52.964;6.086;2022-07-03T16:00:38;18.80;99.90
52415;DHT22;38340;52.964;6.086;2022-07-03T16:03:28;18.90;99.90
52415;DHT22;38340;52.964;6.086;2022-07-03T16:06:02;19.10;99.90
52415;DHT22;38340;52.964;6.086;2022-07-03T16:08:28;19.10;99.90
52415;DHT22;38340;52.964;6.086;2022-07-03T16:10:55;19.10;99.90
52415;DHT22;38340;52.964;6.086;2022-07-03T16:13:26;19.10;99.90
52415;DHT22;38340;52.964;6.086;2022-07-03T16:15:52;19.10;99.90
52415;DHT22;38340;52.964;6.086;2022-07-03T16:18:22;19.20;99.90
52415;DHT22;38340;52.964;6.086;2022-07-03T16:20:49;19.10;99.90
52415;DHT22;38340;52.964;6.086;2022-07-03T16:23:16;19.10;99.90
52415;DHT22;38340;52.964;6.086;2022-07-03T16:25:42;18.90;99.90
52415;DHT22;38340;52.964;6.086;2022-07-03T16:28:10;18.90;99.90
52415;DHT22;38340;52.964;6.086;2022-07-03T16:30:44;18.90;99.90
52415;DHT22;38340;52.964;6.086;2022-07-03T16:33:11;18.80;99.90
52415;DHT22;38340;52.964;6.086;2022-07-03T16:35:41;18.70;99.90
52415;DHT22;38340;52.964;6.086;2022-07-03T16:38:10;18.80;99.90
52415;DHT22;38340;52.964;6.086;2022-07-03T16:40:38;18.80;99.90
52415;DHT22;38340;52.964;6.086;2022-07-03T16:43:06;18.90;99.90
52415;DHT22;38340;52.964;6.086;2022-07-03T16:45:34;19.00;99.90
52415;DHT22;38340;52.964;6.086;2022-07-03T16:48:15;19.20;99.90
52415;DHT22;38340;52.964;6.086;2022-07-03T16:50:48;19.30;99.90
52415;DHT22;38340;52.964;6.086;2022-07-03T16:53:17;19.30;99.90
52415;DHT22;38340;52.964;6.086;2022-07-03T16:55:43;19.40;99.90
52415;DHT22;38340;52.964;6.086;2022-07-03T16:58:10;19.40;99.90